Terminal Aerodrome Forecast
Issued by NWS

Current Version | Previous Version | Graphics & Text | Print | Product List | Glossary On
Versions: 1 2 3 4 5 6 7 8 9 10 11 12 13 14 15 16 17 18 19 20 21 22
000
FTUS41 KPBZ 210520
TAFMGW
TAF
KMGW 210520Z 2106/2206 19007KT P6SM BKN250 WS020/22045KT
     FM211400 21010G20KT P6SM VCSH BKN040
     FM211900 28010G20KT P6SM -SHRA OVC025
     FM212100 31010KT 5SM -SHRA OVC015=

USA.gov is the U.S. government's official web portal to all federal, state and local government web resources and services.